Time;durP1;ratioP1;P1;durP2;ratioP2;P2;SDS_P1;SDS_P2;PMS_P1;PMS_P2;Temp;Humidity;BMP_temperature;BMP_pressure;BME280_temperature;BME280_humidity;BME280_pressure;Samples;Min_cycle;Max_cycle;Signal;HPM_P1;HPM_P2
2021/12/20 00:00:06;;;;;;;7.00;5.20;;;8.70;99.90;;;;;;4920330;28;20492;-84
2021/12/20 00:02:33;;;;;;;9.30;6.27;;;8.70;99.90;;;;;;4932542;28;22622;-86
2021/12/20 00:05:00;;;;;;;8.93;6.10;;;8.70;99.90;;;;;;4931102;28;20464;-85
2021/12/20 00:07:27;;;;;;;11.20;7.13;;;8.70;99.90;;;;;;4896925;28;20888;-83
2021/12/20 00:09:54;;;;;;;8.60;6.40;;;8.70;99.90;;;;;;4944056;28;20482;-86
2021/12/20 00:12:21;;;;;;;6.07;5.47;;;8.90;99.90;;;;;;4946732;28;20471;-83
2021/12/20 00:14:47;;;;;;;7.37;5.77;;;8.90;99.90;;;;;;4946936;28;20473;-85
2021/12/20 00:17:17;;;;;;;10.63;5.80;;;8.80;99.90;;;;;;4949215;28;20533;-85
2021/12/20 00:19:45;;;;;;;7.67;5.73;;;8.70;99.90;;;;;;4951618;28;21032;-84
2021/12/20 00:22:13;;;;;;;6.50;5.07;;;8.70;99.90;;;;;;4952675;28;20527;-84
2021/12/20 00:24:41;;;;;;;6.77;5.40;;;8.80;99.90;;;;;;4954329;28;20447;-85
2021/12/20 00:27:18;;;;;;;;;;;;;;;;;;;;;
2021/12/20 00:29:50;;;;;;;5.80;5.30;;;8.90;99.90;;;;;;4950828;28;20480;-81
2021/12/20 00:32:24;;;;;;;7.80;5.60;;;8.80;99.90;;;;;;4951998;28;20778;-86
2021/12/20 00:34:54;;;;;;;5.73;4.73;;;8.70;99.90;;;;;;4941608;28;20464;-83
2021/12/20 00:40:30;;;;;;;7.10;5.60;;;8.70;99.90;;;;;;4923762;28;20503;-83
2021/12/20 00:43:00;;;;;;;8.07;5.13;;;8.70;99.90;;;;;;4869775;28;22041;-83
2021/12/20 00:45:33;;;;;;;10.20;6.70;;;8.70;99.90;;;;;;4879662;28;20519;-84
2021/12/20 00:48:00;;;;;;;5.77;4.90;;;8.80;99.90;;;;;;4912137;28;20527;-81
2021/12/20 00:50:28;;;;;;;6.53;5.33;;;8.70;99.90;;;;;;4908044;28;20460;-82
2021/12/20 00:52:56;;;;;;;6.20;5.40;;;8.70;99.90;;;;;;4940816;28;20460;-84
2021/12/20 00:55:25;;;;;;;9.87;6.33;;;8.60;99.90;;;;;;4933470;28;20461;-83
2021/12/20 00:57:54;;;;;;;9.47;6.10;;;8.70;99.90;;;;;;5026048;23;20508;-84
2021/12/20 01:00:32;;;;;;;10.27;5.90;;;8.60;99.90;;;;;;4917123;28;20518;-83
2021/12/20 01:03:04;;;;;;;7.37;5.60;;;8.70;99.90;;;;;;4905800;28;20460;-86
2021/12/20 01:05:35;;;;;;;6.53;5.30;;;8.60;99.90;;;;;;4973002;28;21018;-88
2021/12/20 01:08:04;;;;;;;7.93;5.57;;;8.70;99.90;;;;;;4960863;28;20497;-83
2021/12/20 01:10:32;;;;;;;6.03;4.60;;;8.70;99.90;;;;;;4964698;28;20456;-84
2021/12/20 01:13:02;;;;;;;6.77;5.10;;;8.70;99.90;;;;;;4948769;28;20473;-87
2021/12/20 01:15:37;;;;;;;7.43;5.80;;;8.70;99.90;;;;;;4952821;28;20465;-88
2021/12/20 01:18:07;;;;;;;7.23;4.70;;;8.70;99.90;;;;;;4964867;28;20582;-82
2021/12/20 01:20:35;;;;;;;5.87;4.73;;;8.60;99.90;;;;;;4978625;23;20495;-83
2021/12/20 01:23:05;;;;;;;7.80;5.30;;;8.70;99.90;;;;;;4978751;28;20461;-86
2021/12/20 01:25:32;;;;;;;9.87;4.87;;;8.80;99.90;;;;;;4975421;28;20478;-87
2021/12/20 01:27:59;;;;;;;8.20;4.87;;;8.80;99.90;;;;;;4957794;28;20479;-85
2021/12/20 01:30:28;;;;;;;10.63;5.63;;;8.70;99.90;;;;;;4955151;28;20486;-83
2021/12/20 01:32:58;;;;;;;9.20;4.40;;;8.70;99.90;;;;;;4953677;28;20492;-84
2021/12/20 01:35:27;;;;;;;8.97;4.57;;;8.60;99.90;;;;;;4909039;28;21214;-85
2021/12/20 01:37:55;;;;;;;7.60;4.93;;;8.60;99.90;;;;;;4894935;28;20472;-86
2021/12/20 01:40:26;;;;;;;7.63;4.80;;;8.50;99.90;;;;;;4962344;28;20483;-84
2021/12/20 01:43:00;;;;;;;6.60;4.27;;;8.60;99.90;;;;;;4956132;28;20459;-85
2021/12/20 01:45:28;;;;;;;7.03;3.73;;;8.60;99.90;;;;;;4940063;28;20512;-86
2021/12/20 01:48:07;;;;;;;8.10;4.67;;;8.50;99.90;;;;;;4914016;28;20471;-86
2021/12/20 01:51:00;;;;;;;3.97;3.33;;;8.60;99.90;;;;;;4923932;28;21183;-88
2021/12/20 01:53:29;;;;;;;5.43;3.80;;;8.50;99.90;;;;;;4911639;28;20468;-86
2021/12/20 01:55:56;;;;;;;7.07;4.57;;;8.50;99.90;;;;;;4927597;28;21002;-85
2021/12/20 01:58:26;;;;;;;6.40;4.00;;;8.50;99.90;;;;;;4942465;28;20545;-85
2021/12/20 02:03:38;;;;;;;6.07;3.70;;;8.50;99.90;;;;;;4964562;28;20859;-87
2021/12/20 02:06:15;;;;;;;6.00;3.57;;;8.50;99.90;;;;;;4954496;28;22760;-86
2021/12/20 02:08:43;;;;;;;7.60;3.80;;;8.60;99.90;;;;;;4959309;28;20593;-87
2021/12/20 02:11:10;;;;;;;5.37;3.93;;;8.60;99.90;;;;;;4916773;28;21204;-87
2021/12/20 02:13:39;;;;;;;6.60;4.00;;;8.60;99.90;;;;;;4915741;28;20835;-85
2021/12/20 02:16:09;;;;;;;10.67;4.73;;;8.50;99.90;;;;;;4929774;28;20535;-86
2021/12/20 02:19:08;;;;;;;7.13;4.27;;;8.60;99.90;;;;;;4940928;28;20498;-85
2021/12/20 02:21:45;;;;;;;8.90;4.10;;;8.60;99.90;;;;;;4926354;28;20455;-85
2021/12/20 02:24:14;;;;;;;9.57;4.50;;;8.60;99.90;;;;;;4948777;28;20455;-85
2021/12/20 02:26:42;;;;;;;5.23;4.27;;;8.60;99.90;;;;;;4974656;28;20477;-85
2021/12/20 02:29:10;;;;;;;9.23;4.30;;;8.70;99.90;;;;;;4976719;28;20534;-86
2021/12/20 02:39:41;;;;;;;6.93;3.90;;;8.60;99.90;;;;;;4919231;28;20609;-86
2021/12/20 02:42:16;;;;;;;8.13;3.37;;;8.70;99.90;;;;;;4927159;28;20448;-84
2021/12/20 02:44:59;;;;;;;6.20;3.43;;;8.70;99.90;;;;;;4940288;28;20459;-85
2021/12/20 02:47:28;;;;;;;8.33;4.30;;;8.70;99.90;;;;;;4950378;28;20736;-85
2021/12/20 02:49:57;;;;;;;8.43;4.13;;;8.70;99.90;;;;;;4949375;28;20506;-88
2021/12/20 02:52:24;;;;;;;10.67;5.03;;;8.90;99.90;;;;;;4910035;28;21120;-85
2021/12/20 02:54:52;;;;;;;9.17;4.00;;;9.00;99.90;;;;;;4903545;28;20463;-86
2021/12/20 02:57:19;;;;;;;7.57;3.93;;;8.80;99.90;;;;;;4960743;28;20482;-86
2021/12/20 02:59:46;;;;;;;8.70;3.80;;;8.80;99.90;;;;;;4972266;28;20488;-86
2021/12/20 03:02:14;;;;;;;9.90;4.57;;;9.10;99.90;;;;;;4970787;28;20519;-89
2021/12/20 03:04:41;;;;;;;13.10;5.70;;;9.00;99.90;;;;;;4970794;28;20464;-88
2021/12/20 03:07:14;;;;;;;10.47;4.10;;;8.90;99.90;;;;;;4970467;28;20478;-88
2021/12/20 03:09:48;;;;;;;10.90;4.90;;;9.00;99.90;;;;;;4969671;28;20449;-84
2021/12/20 03:12:14;;;;;;;10.13;4.50;;;9.20;99.90;;;;;;4964437;28;20455;-85
2021/12/20 03:14:44;;;;;;;9.17;3.47;;;9.10;99.90;;;;;;4967916;28;20477;-85
2021/12/20 03:17:11;;;;;;;7.90;3.87;;;9.20;99.90;;;;;;4970348;28;20472;-87
2021/12/20 03:19:39;;;;;;;8.47;3.97;;;9.00;99.90;;;;;;4968850;28;20821;-89
2021/12/20 03:22:07;;;;;;;10.27;4.10;;;9.20;99.90;;;;;;4967684;28;20472;-88
2021/12/20 03:24:34;;;;;;;10.33;4.43;;;9.50;99.90;;;;;;4969607;28;20464;-88
2021/12/20 03:27:01;;;;;;;10.93;5.57;;;9.30;99.90;;;;;;4969847;28;20476;-88
2021/12/20 03:29:27;;;;;;;11.83;4.87;;;9.50;99.90;;;;;;4970577;28;20447;-85
2021/12/20 03:31:54;;;;;;;9.63;4.87;;;9.10;99.90;;;;;;4970344;28;20475;-85
2021/12/20 03:34:21;;;;;;;10.60;4.03;;;9.00;99.90;;;;;;4971385;28;20460;-88
2021/12/20 03:36:48;;;;;;;12.47;5.40;;;9.10;99.90;;;;;;4967999;28;21664;-89
2021/12/20 03:39:15;;;;;;;12.27;4.73;;;9.30;99.90;;;;;;4968180;28;20510;-84
2021/12/20 03:41:42;;;;;;;9.90;4.33;;;9.30;99.90;;;;;;4967481;28;20463;-88
2021/12/20 03:44:09;;;;;;;11.17;4.23;;;9.30;99.90;;;;;;4938445;28;20466;-84
2021/12/20 03:46:39;;;;;;;9.20;4.20;;;9.20;99.90;;;;;;4904830;28;20464;-88
2021/12/20 03:49:07;;;;;;;5.10;3.20;;;9.00;99.90;;;;;;4899251;28;22166;-89
2021/12/20 03:51:35;;;;;;;9.50;4.73;;;8.80;99.90;;;;;;4918187;28;20456;-86
2021/12/20 03:54:03;;;;;;;14.57;4.17;;;9.10;99.90;;;;;;4908160;28;21758;-87
2021/12/20 03:56:30;;;;;;;13.53;3.90;;;9.20;98.80;;;;;;4893919;28;20452;-86
2021/12/20 03:59:00;;;;;;;12.30;4.60;;;9.20;98.40;;;;;;4901209;28;21072;-86
2021/12/20 04:01:27;;;;;;;12.20;4.20;;;9.30;98.30;;;;;;4935413;28;20455;-88
2021/12/20 04:03:57;;;;;;;13.23;4.10;;;9.20;98.80;;;;;;4963335;28;20451;-87
2021/12/20 04:06:24;;;;;;;11.37;5.23;;;9.20;99.60;;;;;;4964840;28;20621;-85
2021/12/20 04:08:51;;;;;;;12.43;4.87;;;9.30;99.90;;;;;;4925728;28;20477;-85
2021/12/20 04:11:17;;;;;;;14.17;4.77;;;9.30;99.90;;;;;;4945081;28;20841;-86
2021/12/20 04:13:44;;;;;;;12.93;4.17;;;9.30;99.90;;;;;;4945726;28;20467;-85
2021/12/20 04:16:11;;;;;;;13.97;5.37;;;9.10;99.90;;;;;;4915490;28;20472;-84
2021/12/20 04:18:40;;;;;;;9.03;3.70;;;9.00;99.90;;;;;;4954685;28;20507;-89
2021/12/20 04:21:07;;;;;;;11.43;4.20;;;9.00;99.90;;;;;;4966451;28;20479;-86
2021/12/20 04:23:38;;;;;;;14.77;4.97;;;9.00;99.90;;;;;;4956486;28;20459;-88
2021/12/20 04:26:05;;;;;;;9.83;4.00;;;9.00;99.90;;;;;;4964843;28;20447;-86
2021/12/20 04:28:36;;;;;;;12.07;4.13;;;8.90;99.90;;;;;;4972214;28;21203;-88
2021/12/20 04:31:03;;;;;;;10.47;4.40;;;9.00;99.90;;;;;;4968119;28;20594;-87
2021/12/20 04:33:30;;;;;;;13.10;4.43;;;8.90;99.90;;;;;;4962253;28;20467;-87
2021/12/20 04:35:57;;;;;;;8.23;3.90;;;9.00;99.90;;;;;;4966028;28;20463;-88
2021/12/20 04:38:26;;;;;;;13.60;4.80;;;9.10;99.90;;;;;;4967633;28;22596;-88
2021/12/20 04:40:53;;;;;;;10.80;4.10;;;9.00;99.90;;;;;;4965648;28;20487;-87
2021/12/20 04:43:20;;;;;;;9.80;3.63;;;9.30;99.90;;;;;;4964304;28;20456;-86
2021/12/20 04:45:47;;;;;;;8.60;4.83;;;9.20;99.90;;;;;;4966367;28;20810;-89
2021/12/20 04:48:14;;;;;;;11.80;4.17;;;8.90;99.90;;;;;;4964653;28;21967;-87
2021/12/20 04:50:41;;;;;;;12.10;4.20;;;8.90;99.90;;;;;;4968376;28;20470;-87
2021/12/20 04:53:07;;;;;;;9.37;3.80;;;9.20;99.90;;;;;;4924009;28;20467;-86
2021/12/20 04:55:35;;;;;;;8.30;4.10;;;9.20;99.90;;;;;;4948649;28;20494;-89
2021/12/20 04:58:30;;;;;;;8.97;4.27;;;9.00;99.90;;;;;;4943438;28;20493;-87
2021/12/20 05:01:19;;;;;;;7.60;4.00;;;9.00;99.90;;;;;;4932713;28;20475;-88
2021/12/20 05:04:12;;;;;;;8.17;3.80;;;9.10;99.90;;;;;;4899883;28;20972;-87
2021/12/20 05:06:43;;;;;;;12.50;4.07;;;9.00;99.90;;;;;;4897903;28;20532;-87
2021/12/20 05:09:13;;;;;;;8.20;3.80;;;8.80;99.90;;;;;;4896031;28;20958;-86
2021/12/20 05:11:47;;;;;;;15.17;4.30;;;8.70;99.90;;;;;;4937454;28;20448;-87
2021/12/20 05:14:14;;;;;;;10.47;3.80;;;8.70;99.90;;;;;;4911612;28;20459;-87
2021/12/20 05:16:41;;;;;;;6.70;3.80;;;8.80;99.90;;;;;;4903144;28;20471;-83
2021/12/20 05:19:08;;;;;;;9.53;4.20;;;9.10;99.90;;;;;;4911533;28;20579;-84
2021/12/20 05:21:35;;;;;;;8.43;4.10;;;9.20;99.90;;;;;;4929658;28;20594;-86
2021/12/20 05:24:01;;;;;;;11.83;4.10;;;9.10;99.90;;;;;;4952882;28;22172;-87
2021/12/20 05:26:28;;;;;;;15.00;3.43;;;9.10;99.90;;;;;;4944652;28;20462;-84
2021/12/20 05:28:55;;;;;;;11.10;3.50;;;9.20;99.90;;;;;;4939750;28;20527;-86
2021/12/20 05:31:22;;;;;;;11.40;4.73;;;9.20;99.90;;;;;;4905974;28;21788;-85
2021/12/20 05:33:49;;;;;;;7.10;3.53;;;9.10;99.90;;;;;;4905460;28;21850;-88
2021/12/20 05:36:16;;;;;;;11.20;3.97;;;9.20;99.90;;;;;;4890712;28;20454;-86
2021/12/20 05:38:46;;;;;;;15.40;4.37;;;9.30;99.90;;;;;;4923056;28;20513;-85
2021/12/20 05:41:13;;;;;;;9.33;4.87;;;9.30;99.90;;;;;;4880828;28;21235;-86
2021/12/20 05:43:40;;;;;;;11.13;3.83;;;9.20;99.90;;;;;;4894578;28;20462;-87
2021/12/20 05:46:11;;;;;;;13.10;4.17;;;9.10;99.90;;;;;;4927684;28;20564;-89
2021/12/20 05:48:41;;;;;;;8.50;3.10;;;8.90;99.90;;;;;;4935965;28;22168;-88
2021/12/20 05:51:09;;;;;;;7.70;2.97;;;9.00;99.90;;;;;;4943050;28;20498;-87
2021/12/20 05:53:35;;;;;;;8.80;3.30;;;8.80;99.90;;;;;;4912780;28;20467;-87
2021/12/20 05:56:02;;;;;;;7.67;2.97;;;8.60;99.90;;;;;;4889768;28;20483;-86
2021/12/20 05:58:29;;;;;;;12.77;3.83;;;8.60;99.90;;;;;;4883569;28;21868;-86
2021/12/20 06:00:59;;;;;;;13.77;4.93;;;8.60;99.90;;;;;;4913874;28;20486;-86
2021/12/20 06:03:26;;;;;;;9.20;3.93;;;8.80;99.90;;;;;;4912780;28;20450;-87
2021/12/20 06:05:55;;;;;;;7.53;3.13;;;8.70;99.90;;;;;;4898689;28;20456;-86
2021/12/20 06:08:23;;;;;;;13.00;3.60;;;8.60;99.90;;;;;;4910298;28;20479;-86
2021/12/20 06:10:51;;;;;;;8.77;3.00;;;8.50;99.90;;;;;;4962028;28;20452;-88
2021/12/20 06:13:20;;;;;;;10.23;3.20;;;8.40;99.90;;;;;;4979446;28;20458;-87
2021/12/20 06:15:47;;;;;;;11.77;2.80;;;8.70;99.90;;;;;;4968381;28;21307;-88
2021/12/20 06:18:15;;;;;;;10.37;2.77;;;9.10;99.90;;;;;;4941526;28;20494;-86
2021/12/20 06:20:44;;;;;;;18.70;4.77;;;9.10;99.50;;;;;;4929829;28;22310;-85
2021/12/20 06:23:11;;;;;;;11.23;3.13;;;9.20;99.10;;;;;;4924692;28;20582;-85
2021/12/20 06:25:39;;;;;;;18.03;4.13;;;9.20;98.50;;;;;;4955202;28;20460;-88
2021/12/20 06:28:06;;;;;;;11.07;3.43;;;8.90;99.00;;;;;;4943800;28;20479;-86
2021/12/20 06:30:36;;;;;;;16.43;4.90;;;8.80;99.60;;;;;;4927046;28;20459;-85
2021/12/20 06:33:03;;;;;;;13.00;3.10;;;8.80;99.90;;;;;;4927446;28;20463;-86
2021/12/20 06:35:34;;;;;;;13.40;3.53;;;8.80;99.90;;;;;;4929545;28;20470;-86
2021/12/20 06:38:04;;;;;;;9.00;2.70;;;8.80;99.90;;;;;;4954165;28;20475;-84
2021/12/20 06:40:33;;;;;;;7.03;3.30;;;8.90;99.90;;;;;;4962834;28;20519;-85
2021/12/20 06:43:01;;;;;;;8.20;2.70;;;8.80;99.90;;;;;;4962808;28;20534;-86
2021/12/20 06:45:31;;;;;;;14.30;4.60;;;8.60;99.70;;;;;;4933943;28;20439;-86
2021/12/20 06:47:58;;;;;;;9.93;3.40;;;8.70;99.80;;;;;;4915928;28;20468;-86
2021/12/20 06:50:26;;;;;;;11.27;4.20;;;8.70;99.70;;;;;;4886772;28;20470;-84
2021/12/20 06:52:53;;;;;;;13.83;3.47;;;8.60;99.10;;;;;;4948428;28;20546;-87
2021/12/20 06:55:20;;;;;;;6.37;2.60;;;8.60;99.10;;;;;;4936098;28;20779;-85
2021/12/20 06:57:50;;;;;;;16.00;2.70;;;8.70;98.60;;;;;;4911729;28;20478;-87
2021/12/20 07:00:23;;;;;;;9.43;2.90;;;8.80;97.00;;;;;;4926595;28;20502;-86
2021/12/20 07:03:02;;;;;;;5.00;3.10;;;8.90;95.20;;;;;;4920406;28;20456;-85
2021/12/20 07:05:32;;;;;;;8.80;2.90;;;9.10;94.40;;;;;;4955554;28;20454;-85
2021/12/20 07:07:59;;;;;;;9.93;3.20;;;8.90;94.50;;;;;;4951324;28;20494;-86
2021/12/20 07:10:26;;;;;;;12.00;3.53;;;8.70;95.00;;;;;;4958219;28;20554;-87
2021/12/20 07:12:53;;;;;;;10.07;4.63;;;8.70;95.60;;;;;;4959100;28;20467;-90
2021/12/20 07:15:20;;;;;;;14.47;3.33;;;8.60;95.90;;;;;;4921497;28;20479;-86
2021/12/20 07:17:49;;;;;;;9.20;3.10;;;8.70;95.90;;;;;;4907388;28;20543;-86
2021/12/20 07:20:16;;;;;;;10.10;2.70;;;8.60;96.00;;;;;;4912756;28;20584;-86
2021/12/20 07:22:44;;;;;;;9.63;4.03;;;8.60;96.30;;;;;;4914768;28;20530;-86
2021/12/20 07:25:11;;;;;;;12.83;3.00;;;8.60;96.70;;;;;;4945477;28;20462;-86
2021/12/20 07:27:45;;;;;;;10.13;2.97;;;8.70;96.80;;;;;;4912334;28;20996;-87
2021/12/20 07:30:23;;;;;;;16.17;3.57;;;8.90;96.70;;;;;;4911853;28;20443;-86
2021/12/20 07:32:50;;;;;;;7.47;4.33;;;8.70;96.40;;;;;;4935293;28;20457;-85
2021/12/20 07:35:22;;;;;;;8.87;2.87;;;8.60;96.60;;;;;;4937264;28;20456;-84
2021/12/20 07:37:54;;;;;;;10.77;3.10;;;8.60;97.00;;;;;;4893330;28;20501;-87
2021/12/20 07:40:21;;;;;;;21.97;4.87;;;8.60;97.10;;;;;;4960294;28;20614;-89
2021/12/20 07:42:48;;;;;;;9.30;3.70;;;8.60;97.40;;;;;;4932256;28;20570;-87
2021/12/20 07:45:17;;;;;;;12.93;3.70;;;8.80;97.50;;;;;;4927362;28;20453;-85
2021/12/20 07:47:48;;;;;;;14.07;4.27;;;8.80;97.20;;;;;;4926117;28;20476;-85
2021/12/20 07:50:18;;;;;;;11.90;3.57;;;8.90;97.30;;;;;;4968425;28;21550;-86
2021/12/20 07:52:52;;;;;;;8.90;3.53;;;8.80;97.30;;;;;;4929723;28;20527;-85
2021/12/20 07:55:18;;;;;;;15.23;4.63;;;8.90;97.40;;;;;;4916673;28;21363;-85
2021/12/20 07:57:51;;;;;;;12.10;4.03;;;9.00;96.90;;;;;;4915614;28;20494;-86
2021/12/20 08:00:22;;;;;;;16.70;3.97;;;9.10;96.60;;;;;;4950831;28;20431;-88
2021/12/20 08:02:52;;;;;;;13.67;4.77;;;9.10;96.50;;;;;;4957810;28;20434;-86
2021/12/20 08:05:19;;;;;;;10.83;4.13;;;9.00;96.80;;;;;;4943049;28;20491;-86
2021/12/20 08:07:50;;;;;;;14.83;3.30;;;8.90;97.10;;;;;;4966400;28;20475;-84
2021/12/20 08:10:20;;;;;;;13.77;4.40;;;8.80;97.50;;;;;;4920935;28;21569;-87
2021/12/20 08:12:54;;;;;;;13.50;4.10;;;8.80;97.60;;;;;;4906953;28;20475;-87
2021/12/20 08:15:22;;;;;;;16.33;5.33;;;8.90;97.70;;;;;;4909579;28;20458;-86
2021/12/20 08:17:50;;;;;;;15.20;3.80;;;8.80;97.70;;;;;;4925169;28;20517;-85
2021/12/20 08:20:17;;;;;;;7.63;3.30;;;8.60;98.10;;;;;;4907113;28;20463;-83
2021/12/20 08:22:46;;;;;;;11.97;4.17;;;8.50;98.70;;;;;;4907005;28;22863;-85
2021/12/20 08:25:15;;;;;;;14.67;3.73;;;8.50;99.10;;;;;;4938257;28;22172;-84
2021/12/20 08:27:43;;;;;;;13.80;4.53;;;8.50;99.10;;;;;;4948016;28;20532;-84
2021/12/20 08:30:10;;;;;;;7.93;3.90;;;8.70;98.90;;;;;;4957064;28;20460;-85
2021/12/20 08:32:52;;;;;;;9.40;3.60;;;8.80;98.90;;;;;;4956098;28;20448;-84
2021/12/20 08:35:20;;;;;;;14.80;5.40;;;8.80;98.40;;;;;;4943435;28;20450;-84
2021/12/20 08:37:50;;;;;;;9.83;4.30;;;8.60;98.70;;;;;;4939235;28;21825;-85
2021/12/20 08:40:17;;;;;;;15.03;3.87;;;8.60;98.70;;;;;;4934941;28;20459;-84
2021/12/20 08:42:47;;;;;;;11.50;4.17;;;8.60;98.90;;;;;;4962667;28;20478;-85
2021/12/20 08:45:17;;;;;;;15.37;3.50;;;8.50;98.50;;;;;;4934035;28;20467;-85
2021/12/20 08:47:48;;;;;;;8.93;3.70;;;8.30;98.70;;;;;;4931239;28;20468;-84
2021/12/20 08:50:18;;;;;;;10.77;3.80;;;8.30;99.10;;;;;;4938234;28;20462;-86
2021/12/20 08:52:45;;;;;;;11.17;4.87;;;8.30;99.70;;;;;;4950641;28;20479;-86
2021/12/20 08:55:13;;;;;;;7.93;3.00;;;8.20;99.70;;;;;;4965382;28;21821;-86
2021/12/20 08:57:40;;;;;;;13.13;3.60;;;8.20;99.90;;;;;;4951814;28;20491;-85
2021/12/20 09:00:12;;;;;;;14.90;3.50;;;8.20;99.90;;;;;;4951992;28;21745;-84
2021/12/20 09:02:39;;;;;;;12.90;4.33;;;8.20;99.80;;;;;;4922119;28;20507;-87
2021/12/20 09:05:06;;;;;;;14.20;4.93;;;8.20;99.80;;;;;;4926949;28;20463;-85
2021/12/20 09:07:33;;;;;;;11.10;4.13;;;8.00;99.90;;;;;;4976533;28;21168;-84
2021/12/20 09:10:10;;;;;;;19.87;4.47;;;8.10;99.90;;;;;;4978176;28;20451;-84
2021/12/20 09:12:41;;;;;;;10.60;3.53;;;8.10;99.90;;;;;;4981292;28;20468;-88
2021/12/20 09:15:09;;;;;;;14.43;4.13;;;8.20;99.90;;;;;;4976240;28;20448;-86
2021/12/20 09:17:38;;;;;;;12.20;4.83;;;8.20;99.90;;;;;;4973694;28;20519;-86
2021/12/20 09:20:06;;;;;;;12.07;4.30;;;8.30;99.80;;;;;;4980326;28;20444;-87
2021/12/20 09:22:39;;;;;;;18.87;3.73;;;8.20;99.80;;;;;;4981949;28;20509;-86
2021/12/20 09:25:07;;;;;;;19.07;5.40;;;8.10;99.50;;;;;;4981118;28;20456;-85
2021/12/20 09:27:34;;;;;;;16.20;5.37;;;8.10;99.90;;;;;;4977628;28;20885;-90
2021/12/20 09:30:04;;;;;;;10.77;4.30;;;8.10;99.90;;;;;;4981083;28;20510;-89
2021/12/20 09:32:31;;;;;;;12.67;4.47;;;8.60;99.90;;;;;;4977442;28;20447;-88
2021/12/20 09:34:58;;;;;;;12.17;4.03;;;9.20;99.70;;;;;;4982279;28;20503;-85
2021/12/20 09:37:27;;;;;;;36.20;6.60;;;10.30;96.60;;;;;;4976778;28;20567;-88
2021/12/20 09:39:55;;;;;;;15.40;4.20;;;10.50;95.10;;;;;;4973221;28;22049;-88
2021/12/20 09:42:22;;;;;;;8.13;3.10;;;11.90;93.70;;;;;;5137635;23;20496;-85
2021/12/20 09:44:50;;;;;;;10.33;3.87;;;12.90;91.20;;;;;;4962109;28;20850;-86
2021/12/20 09:47:18;;;;;;;14.50;4.10;;;13.40;87.10;;;;;;4959880;28;20515;-86
2021/12/20 09:49:48;;;;;;;10.00;3.50;;;13.10;86.20;;;;;;4950011;28;20451;-84
2021/12/20 09:52:14;;;;;;;12.90;4.77;;;12.80;86.90;;;;;;4954637;28;20435;-87
2021/12/20 09:54:42;;;;;;;19.03;5.27;;;12.50;87.70;;;;;;4952856;28;20461;-85
2021/12/20 09:57:11;;;;;;;10.90;3.77;;;12.40;88.90;;;;;;4950531;28;20485;-88
2021/12/20 09:59:41;;;;;;;16.67;4.00;;;12.40;89.00;;;;;;4951850;28;20447;-87
2021/12/20 10:02:09;;;;;;;15.30;5.00;;;12.10;89.00;;;;;;4947453;28;20477;-86
2021/12/20 10:04:37;;;;;;;13.40;4.00;;;11.50;90.00;;;;;;4951421;28;20451;-85
2021/12/20 10:07:10;;;;;;;12.83;4.27;;;11.00;90.60;;;;;;4950625;28;20630;-85
2021/12/20 10:09:41;;;;;;;18.73;4.43;;;10.70;91.00;;;;;;4957469;28;20523;-87
2021/12/20 10:12:27;;;;;;;11.07;3.73;;;10.30;91.80;;;;;;4953447;28;20503;-87
2021/12/20 10:15:09;;;;;;;12.80;3.80;;;10.10;92.40;;;;;;4951699;28;20451;-88
2021/12/20 10:17:59;;;;;;;13.10;3.53;;;9.90;93.80;;;;;;4946904;28;20490;-85
2021/12/20 10:20:35;;;;;;;9.30;3.20;;;9.90;94.10;;;;;;4951577;28;21782;-87
2021/12/20 10:23:12;;;;;;;10.97;3.30;;;9.80;94.10;;;;;;4936961;28;20481;-85
2021/12/20 10:25:54;;;;;;;9.53;3.33;;;9.90;94.00;;;;;;4959042;28;20587;-87
2021/12/20 10:28:35;;;;;;;11.10;3.90;;;10.10;93.10;;;;;;4949130;28;21359;-87
2021/12/20 10:31:07;;;;;;;14.57;3.97;;;9.80;93.60;;;;;;4950955;28;20450;-87
2021/12/20 10:33:37;;;;;;;9.87;3.80;;;9.70;93.80;;;;;;4944607;28;20486;-85
2021/12/20 10:36:07;;;;;;;11.67;3.70;;;9.70;94.00;;;;;;4914657;28;20464;-85
2021/12/20 10:38:39;;;;;;;9.90;3.80;;;9.70;93.70;;;;;;4888546;28;20480;-84
2021/12/20 10:41:17;;;;;;;9.90;3.03;;;9.60;93.70;;;;;;4909948;28;20484;-87
2021/12/20 10:43:56;;;;;;;12.33;4.00;;;9.60;94.10;;;;;;4917068;28;20468;-86
2021/12/20 10:46:27;;;;;;;13.10;4.20;;;9.60;94.00;;;;;;4949473;28;20506;-87
2021/12/20 10:49:03;;;;;;;12.13;3.23;;;9.70;94.30;;;;;;4941813;28;20472;-87
2021/12/20 10:51:44;;;;;;;11.07;4.27;;;9.50;94.20;;;;;;4943722;28;20518;-85
2021/12/20 10:54:15;;;;;;;13.60;3.60;;;9.50;94.60;;;;;;4947550;28;20460;-86
2021/12/20 10:56:51;;;;;;;11.97;2.97;;;9.20;94.60;;;;;;4962437;28;20462;-87
2021/12/20 10:59:38;;;;;;;10.43;3.40;;;9.20;94.20;;;;;;4946773;28;20461;-87
2021/12/20 11:03:09;;;;;;;9.00;3.07;;;9.10;93.80;;;;;;4946642;28;20502;-86
2021/12/20 11:05:20;;;;;;;6.30;3.37;;;8.90;94.10;;;;;;4938829;28;20830;-88
2021/12/20 11:10:37;;;;;;;12.07;3.40;;;9.00;93.70;;;;;;4947759;28;20456;-87
2021/12/20 11:13:15;;;;;;;9.80;4.40;;;9.20;94.00;;;;;;4945756;28;20460;-85
2021/12/20 11:15:43;;;;;;;9.83;3.40;;;9.30;93.80;;;;;;4948814;28;20463;-86
2021/12/20 11:18:16;;;;;;;7.90;3.03;;;9.40;93.10;;;;;;4960801;28;21049;-87
2021/12/20 11:20:44;;;;;;;9.50;3.70;;;9.30;92.90;;;;;;4951493;28;20475;-86
2021/12/20 11:23:25;;;;;;;7.17;2.37;;;9.40;92.70;;;;;;4949107;28;20839;-85
2021/12/20 11:25:53;;;;;;;5.57;2.00;;;9.40;90.90;;;;;;4948045;28;20448;-86
2021/12/20 11:28:19;;;;;;;5.83;1.97;;;9.20;90.70;;;;;;4944780;28;20492;-85
2021/12/20 11:30:46;;;;;;;3.93;1.80;;;9.10;89.30;;;;;;4947462;28;20476;-87
2021/12/20 11:33:13;;;;;;;4.93;1.90;;;9.10;89.00;;;;;;4948367;28;20457;-86
2021/12/20 11:35:40;;;;;;;6.00;1.83;;;9.20;87.70;;;;;;4948010;28;20448;-84
2021/12/20 11:38:06;;;;;;;4.47;1.57;;;9.10;84.30;;;;;;4944743;28;20472;-86
2021/12/20 11:40:34;;;;;;;5.93;2.03;;;9.00;85.00;;;;;;4944553;28;20566;-87
2021/12/20 11:43:03;;;;;;;6.93;2.60;;;9.10;85.20;;;;;;4927497;28;20563;-86
2021/12/20 11:45:30;;;;;;;3.90;1.60;;;9.20;85.30;;;;;;4937086;28;20547;-86
2021/12/20 11:48:02;;;;;;;3.63;1.67;;;9.40;84.50;;;;;;4942445;28;20481;-86
2021/12/20 11:50:33;;;;;;;4.63;1.87;;;9.40;82.70;;;;;;4937479;28;21354;-84
2021/12/20 11:53:11;;;;;;;10.70;2.30;;;9.40;81.80;;;;;;4942848;28;20467;-86
2021/12/20 11:56:08;;;;;;;8.20;1.70;;;9.40;80.70;;;;;;4941473;28;20452;-85
2021/12/20 11:58:49;;;;;;;2.83;1.50;;;9.30;80.30;;;;;;4935976;28;21026;-85
2021/12/20 12:01:18;;;;;;;7.03;2.50;;;9.10;79.50;;;;;;4947979;28;21106;-88
2021/12/20 12:03:59;;;;;;;5.57;1.57;;;9.10;79.80;;;;;;4962889;28;20460;-88
2021/12/20 12:06:33;;;;;;;5.90;1.50;;;9.00;80.70;;;;;;4946790;28;20457;-85
2021/12/20 12:09:03;;;;;;;4.10;1.90;;;9.40;79.30;;;;;;4945713;28;20498;-84
2021/12/20 12:11:52;;;;;;;3.50;1.70;;;9.30;77.60;;;;;;4952602;28;20441;-87
2021/12/20 12:14:23;;;;;;;2.10;1.50;;;9.30;76.90;;;;;;4939834;28;20515;-88
2021/12/20 12:16:57;;;;;;;3.97;1.50;;;9.30;75.80;;;;;;4935189;28;22244;-87
2021/12/20 12:19:52;;;;;;;5.10;3.27;;;9.40;75.50;;;;;;4941304;28;20962;-87
2021/12/20 12:22:27;;;;;;;3.60;1.70;;;9.10;76.50;;;;;;4947392;28;20480;-86
2021/12/20 12:24:55;;;;;;;3.13;1.17;;;9.30;76.30;;;;;;4955364;28;20498;-87
2021/12/20 12:27:25;;;;;;;3.77;1.57;;;9.30;75.30;;;;;;4940131;28;20551;-83
2021/12/20 12:30:11;;;;;;;2.93;1.40;;;9.40;74.70;;;;;;4941684;28;20546;-85
2021/12/20 12:32:44;;;;;;;1.60;1.23;;;9.50;73.60;;;;;;4942335;28;20478;-83
2021/12/20 12:35:37;;;;;;;2.60;2.00;;;9.50;70.10;;;;;;4937462;28;20973;-84
2021/12/20 12:38:18;;;;;;;1.80;1.13;;;9.50;67.70;;;;;;4944711;28;20478;-84
2021/12/20 12:40:50;;;;;;;4.47;1.40;;;9.40;67.60;;;;;;4942274;28;22714;-83
2021/12/20 12:43:40;;;;;;;2.90;1.17;;;9.20;66.40;;;;;;4945895;28;20882;-86
2021/12/20 12:46:08;;;;;;;2.20;1.10;;;9.00;67.70;;;;;;4946578;28;20463;-87
2021/12/20 12:48:43;;;;;;;4.67;1.33;;;9.30;66.50;;;;;;4936720;28;20494;-85
2021/12/20 12:51:38;;;;;;;2.93;1.10;;;9.30;66.30;;;;;;4939990;28;20547;-83
2021/12/20 12:54:08;;;;;;;2.60;0.90;;;9.30;64.70;;;;;;4939804;28;20455;-87
2021/12/20 12:56:35;;;;;;;3.37;1.30;;;9.20;65.30;;;;;;4935900;28;20472;-85
2021/12/20 12:59:16;;;;;;;4.20;1.50;;;9.20;65.60;;;;;;4941426;28;20465;-85
2021/12/20 13:02:07;;;;;;;3.23;1.20;;;9.20;65.30;;;;;;4938619;28;20557;-84
2021/12/20 13:04:50;;;;;;;3.70;1.43;;;9.10;64.90;;;;;;4936069;28;20448;-85
2021/12/20 13:07:33;;;;;;;4.13;1.27;;;9.30;63.50;;;;;;4927077;28;20481;-84
2021/12/20 13:10:05;;;;;;;2.87;1.20;;;9.40;62.50;;;;;;4937635;28;20451;-87
2021/12/20 13:12:53;;;;;;;3.40;1.30;;;9.20;62.20;;;;;;4948755;28;21047;-87
2021/12/20 13:15:43;;;;;;;2.43;1.30;;;9.30;62.20;;;;;;4947420;28;20478;-89
2021/12/20 13:22:07;;;;;;;3.40;1.30;;;9.30;62.70;;;;;;4969091;28;20486;-84
2021/12/20 13:24:35;;;;;;;4.40;1.53;;;9.10;62.90;;;;;;4964255;28;20463;-86
2021/12/20 13:27:07;;;;;;;5.80;1.40;;;9.10;62.70;;;;;;4967608;28;20484;-87
2021/12/20 13:29:35;;;;;;;3.13;1.20;;;9.20;61.90;;;;;;4971299;28;20460;-86
2021/12/20 13:32:10;;;;;;;2.83;1.20;;;9.20;62.90;;;;;;4969267;28;20455;-85